Time;durP1;ratioP1;P1;durP2;ratioP2;P2;SDS_P1;SDS_P2;PMS_P1;PMS_P2;Temp;Humidity;BMP_temperature;BMP_pressure;BME280_temperature;BME280_humidity;BME280_pressure;Samples;Min_cycle;Max_cycle;Signal;HPM_P1;HPM_P2
2023/01/23 05:02:55;;;;;;;96.95;33.63;;;-3.70;99.90;;;;;;7618000;19;21814;-72
2023/01/23 05:05:28;;;;;;;90.90;34.55;;;-3.70;99.90;;;;;;7617695;19;20989;-72
2023/01/23 05:08:04;;;;;;;94.28;34.20;;;-3.70;99.90;;;;;;7628252;19;20014;-71
2023/01/23 05:10:37;;;;;;;99.05;35.78;;;-3.60;99.90;;;;;;7610641;19;20018;-72
2023/01/23 05:13:12;;;;;;;99.60;34.40;;;-3.50;99.90;;;;;;7607422;19;20014;-72
2023/01/23 05:15:44;;;;;;;81.20;31.67;;;-3.40;99.90;;;;;;7593882;19;20018;-74
2023/01/23 05:18:16;;;;;;;86.50;32.40;;;-3.30;99.90;;;;;;7606183;19;20018;-72
2023/01/23 05:20:50;;;;;;;85.13;33.35;;;-3.20;99.90;;;;;;7596528;19;20695;-72
2023/01/23 05:23:22;;;;;;;84.55;29.92;;;-3.20;99.90;;;;;;7606979;19;20057;-73
2023/01/23 05:25:56;;;;;;;80.60;29.48;;;-3.10;99.90;;;;;;7611151;19;20933;-73
2023/01/23 05:28:29;;;;;;;78.32;29.75;;;-3.10;99.90;;;;;;7595568;19;21384;-72
2023/01/23 05:31:01;;;;;;;71.68;28.05;;;-3.00;99.90;;;;;;7593997;19;20037;-73
2023/01/23 05:33:42;;;;;;;74.05;30.48;;;-3.00;99.90;;;;;;7596007;19;20014;-73
2023/01/23 05:36:14;;;;;;;83.80;32.07;;;-2.90;99.90;;;;;;7582678;19;20075;-72
2023/01/23 05:38:49;;;;;;;78.68;31.23;;;-2.80;99.90;;;;;;7602403;19;20018;-73
2023/01/23 05:41:22;;;;;;;73.28;30.33;;;-2.80;99.90;;;;;;7596363;19;20014;-74
2023/01/23 05:44:16;;;;;;;87.03;32.75;;;-2.80;99.90;;;;;;7594913;19;20015;-73
2023/01/23 05:46:56;;;;;;;79.28;32.20;;;-2.80;99.90;;;;;;7599951;19;20025;-73
2023/01/23 05:49:28;;;;;;;86.82;33.38;;;-0.40;99.90;;;;;;7602298;19;20018;-73
2023/01/23 05:52:01;;;;;;;80.78;32.05;;;-2.70;99.90;;;;;;7604702;19;20026;-72
2023/01/23 05:54:33;;;;;;;72.65;29.35;;;-2.70;99.90;;;;;;7602961;19;20038;-73
2023/01/23 05:57:08;;;;;;;80.22;32.53;;;-2.10;99.90;;;;;;7602470;19;20014;-72
2023/01/23 05:59:40;;;;;;;73.07;28.63;;;-3.10;99.90;;;;;;7594881;19;20042;-71
2023/01/23 06:02:30;;;;;;;70.35;27.92;;;-2.80;99.90;;;;;;7593155;19;20664;-71
2023/01/23 06:05:26;;;;;;;70.65;28.92;;;-2.50;99.90;;;;;;7570905;19;20018;-74
2023/01/23 06:08:06;;;;;;;68.55;27.15;;;-2.50;99.90;;;;;;7597542;19;20011;-75
2023/01/23 06:10:38;;;;;;;68.47;27.63;;;-2.10;99.90;;;;;;7563353;19;20454;-75
2023/01/23 06:13:14;;;;;;;71.50;28.70;;;-3.00;99.90;;;;;;7575026;19;20041;-75
2023/01/23 06:15:46;;;;;;;68.45;27.25;;;-2.50;99.90;;;;;;7563149;19;20790;-75
2023/01/23 06:18:22;;;;;;;70.85;28.27;;;-2.60;99.90;;;;;;7564939;19;20030;-75
2023/01/23 06:20:59;;;;;;;69.60;29.70;;;-2.60;99.90;;;;;;7581280;19;20056;-74
2023/01/23 06:23:32;;;;;;;69.63;28.83;;;-1.90;99.90;;;;;;7563713;19;20015;-75
2023/01/23 06:26:04;;;;;;;68.88;28.30;;;-2.50;99.90;;;;;;7589954;19;21400;-75
2023/01/23 06:28:38;;;;;;;69.32;27.73;;;-2.50;99.90;;;;;;7553472;19;20093;-75
2023/01/23 06:31:11;;;;;;;70.18;28.50;;;-2.50;99.90;;;;;;7526474;19;20578;-75
2023/01/23 06:33:58;;;;;;;73.32;26.77;;;-2.50;99.90;;;;;;7546415;19;20020;-74
2023/01/23 06:36:35;;;;;;;72.47;29.35;;;-2.50;99.90;;;;;;7564894;19;21577;-74
2023/01/23 06:39:11;;;;;;;;;;;-2.50;99.90;;;;;;7594796;19;20026;-74
2023/01/23 06:41:45;;;;;;;63.38;26.92;;;-2.50;99.90;;;;;;7591506;19;19922;-73
2023/01/23 06:44:23;;;;;;;71.07;29.42;;;-2.00;99.90;;;;;;7604335;19;20022;-74
2023/01/23 06:46:59;;;;;;;75.85;30.30;;;-2.50;99.90;;;;;;7595498;19;20014;-73
2023/01/23 06:49:31;;;;;;;65.75;28.23;;;-1.60;99.90;;;;;;7606511;19;20012;-74
2023/01/23 06:52:04;;;;;;;70.72;28.55;;;-2.50;99.90;;;;;;7597018;19;20553;-75
2023/01/23 06:54:36;;;;;;;76.68;31.15;;;-2.40;99.90;;;;;;7599327;19;20514;-73
2023/01/23 06:57:11;;;;;;;69.10;27.80;;;-2.70;99.90;;;;;;7604593;19;21030;-75
2023/01/23 06:59:43;;;;;;;73.55;29.40;;;-2.50;99.90;;;;;;7609836;19;20018;-75
2023/01/23 07:02:22;;;;;;;71.38;28.33;;;-2.40;99.90;;;;;;7594248;19;20052;-76
2023/01/23 07:04:55;;;;;;;74.45;29.65;;;-2.40;99.90;;;;;;7606037;19;20699;-73
2023/01/23 07:07:27;;;;;;;72.97;28.35;;;-2.30;99.90;;;;;;7603081;19;20459;-74
2023/01/23 07:09:59;;;;;;;78.18;30.33;;;-2.30;99.90;;;;;;7606672;19;20025;-73
2023/01/23 07:12:31;;;;;;;79.03;31.27;;;-2.30;99.90;;;;;;7601418;19;20017;-73
2023/01/23 07:15:04;;;;;;;87.45;33.15;;;-2.30;99.90;;;;;;7602807;19;20546;-73
2023/01/23 07:17:42;;;;;;;91.40;33.95;;;-2.00;99.90;;;;;;7603647;19;20048;-74
2023/01/23 07:20:14;;;;;;;97.13;34.88;;;-2.30;99.90;;;;;;7597271;19;20049;-74
2023/01/23 07:22:53;;;;;;;105.28;37.83;;;-2.30;99.90;;;;;;7586392;19;20048;-74
2023/01/23 07:25:28;;;;;;;110.88;37.60;;;-2.30;99.90;;;;;;7551373;19;20626;-74
2023/01/23 07:28:01;;;;;;;104.75;37.05;;;-2.20;99.90;;;;;;7604396;19;20022;-73
2023/01/23 07:30:33;;;;;;;112.57;39.55;;;-2.00;99.90;;;;;;7582818;19;20014;-73
2023/01/23 07:33:05;;;;;;;119.90;42.13;;;-1.90;99.90;;;;;;7583550;19;20018;-73
2023/01/23 07:35:39;;;;;;;122.65;40.08;;;-2.00;99.90;;;;;;7586253;19;20026;-73
2023/01/23 07:38:11;;;;;;;143.68;42.75;;;-2.00;99.90;;;;;;7587599;19;20022;-73
2023/01/23 07:40:44;;;;;;;178.82;50.28;;;-0.30;99.90;;;;;;7595480;19;20219;-74
2023/01/23 07:43:16;;;;;;;164.63;48.38;;;-1.60;99.90;;;;;;7597947;19;20022;-74
2023/01/23 07:45:49;;;;;;;192.32;48.42;;;-2.00;99.90;;;;;;7607544;19;20022;-73
2023/01/23 07:48:21;;;;;;;188.17;47.83;;;-2.10;99.90;;;;;;7575674;19;20014;-73
2023/01/23 07:50:56;;;;;;;211.07;53.30;;;-2.00;99.90;;;;;;7602689;19;20354;-73
2023/01/23 07:53:28;;;;;;;173.60;49.97;;;-2.00;99.90;;;;;;7586252;19;20042;-73
2023/01/23 07:56:04;;;;;;;204.88;50.72;;;-1.90;99.90;;;;;;7595917;19;20025;-73
2023/01/23 07:58:36;;;;;;;164.32;47.58;;;-1.90;99.90;;;;;;7575325;19;20089;-73
2023/01/23 08:01:11;;;;;;;236.50;54.70;;;-1.90;99.90;;;;;;7584315;19;20618;-74
2023/01/23 08:03:44;;;;;;;187.48;50.80;;;-2.10;99.90;;;;;;7585618;19;20022;-73
2023/01/23 08:06:17;;;;;;;189.02;51.67;;;-1.90;99.90;;;;;;7601488;19;20025;-73
2023/01/23 08:08:49;;;;;;;205.45;53.72;;;-1.90;99.90;;;;;;7587084;19;20018;-74
2023/01/23 08:11:22;;;;;;;248.05;56.40;;;-1.80;99.90;;;;;;7592092;19;20018;-73
2023/01/23 08:13:55;;;;;;;310.45;59.15;;;-1.60;99.90;;;;;;7575493;19;20011;-73
2023/01/23 08:16:27;;;;;;;204.00;55.53;;;-1.80;99.90;;;;;;7586338;19;20018;-73
2023/01/23 08:18:59;;;;;;;285.85;60.20;;;-1.70;99.90;;;;;;7591890;19;20101;-73
2023/01/23 08:21:31;;;;;;;195.77;51.20;;;-1.70;99.90;;;;;;7587536;19;20022;-73
2023/01/23 08:24:04;;;;;;;248.23;56.80;;;-1.70;99.90;;;;;;7587702;19;20018;-74
2023/01/23 08:26:37;;;;;;;231.60;55.88;;;-1.70;99.90;;;;;;7595632;19;20018;-74
2023/01/23 08:29:10;;;;;;;211.35;54.40;;;-1.70;99.90;;;;;;7578469;19;20014;-73
2023/01/23 08:31:42;;;;;;;217.50;53.25;;;-1.70;99.90;;;;;;7597669;19;20523;-73
2023/01/23 08:34:14;;;;;;;207.02;53.42;;;-1.60;99.90;;;;;;7586598;19;20444;-73
2023/01/23 08:36:47;;;;;;;165.20;45.75;;;-1.60;99.90;;;;;;7588568;19;20057;-72
2023/01/23 08:39:19;;;;;;;210.20;53.47;;;-1.60;99.90;;;;;;7589216;19;20070;-73
2023/01/23 08:41:52;;;;;;;214.73;54.40;;;-1.50;99.90;;;;;;7588922;19;20019;-73
2023/01/23 08:44:24;;;;;;;190.23;50.55;;;-1.50;99.90;;;;;;7584093;19;20018;-73
2023/01/23 08:46:57;;;;;;;205.20;52.70;;;-1.50;99.90;;;;;;7586038;19;21402;-72
2023/01/23 08:49:30;;;;;;;156.77;48.33;;;-1.50;99.90;;;;;;7594813;19;20494;-73
2023/01/23 08:52:04;;;;;;;171.50;48.58;;;-1.50;99.90;;;;;;7583137;19;20857;-73
2023/01/23 08:54:36;;;;;;;166.18;48.67;;;-1.40;99.90;;;;;;7569883;19;20023;-73
2023/01/23 08:57:09;;;;;;;173.57;47.50;;;-1.40;99.90;;;;;;7591995;19;20529;-73
2023/01/23 08:59:43;;;;;;;154.02;43.15;;;-1.30;99.90;;;;;;7597699;19;20014;-73
2023/01/23 09:02:15;;;;;;;;;;;-1.30;99.90;;;;;;7607064;19;20026;-73
2023/01/23 09:04:48;;;;;;;138.18;41.13;;;-1.30;99.90;;;;;;7592047;19;19925;-73
2023/01/23 09:07:20;;;;;;;134.77;41.00;;;-1.20;99.90;;;;;;7581935;19;20063;-73
2023/01/23 09:09:53;;;;;;;137.15;42.88;;;-1.20;99.90;;;;;;7569312;19;20014;-73
2023/01/23 16:19:58;;;;;;;102.35;34.28;;;0.00;99.90;;;;;;7601194;19;20348;-71
2023/01/23 16:22:31;;;;;;;97.68;35.40;;;0.00;99.90;;;;;;7621065;19;20042;-71
2023/01/23 16:25:03;;;;;;;105.45;36.92;;;0.00;99.90;;;;;;7615465;19;20514;-72
2023/01/23 16:27:35;;;;;;;107.13;37.08;;;0.10;99.90;;;;;;7614310;19;20674;-72
2023/01/23 16:30:16;;;;;;;116.90;40.40;;;0.10;99.90;;;;;;7601402;19;20165;-72
2023/01/23 16:32:48;;;;;;;107.47;43.33;;;0.20;99.90;;;;;;7623382;19;20043;-72
2023/01/23 16:35:22;;;;;;;108.07;38.40;;;0.20;99.90;;;;;;7628268;19;20407;-72
2023/01/23 16:37:54;;;;;;;104.43;37.63;;;0.30;99.90;;;;;;7630008;19;20470;-70
2023/01/23 16:40:29;;;;;;;113.00;38.38;;;0.40;99.90;;;;;;7624289;19;20337;-70
2023/01/23 16:43:02;;;;;;;107.32;38.70;;;0.40;99.90;;;;;;7627882;19;20512;-71
2023/01/23 16:45:34;;;;;;;100.68;36.75;;;0.40;99.90;;;;;;7614626;19;20010;-70
2023/01/23 16:48:07;;;;;;;115.00;39.95;;;0.50;99.90;;;;;;7618551;19;20018;-71
2023/01/23 16:50:51;;;;;;;109.18;39.22;;;0.50;99.90;;;;;;7610802;19;20014;-72
2023/01/23 16:53:33;;;;;;;109.95;39.95;;;0.50;99.90;;;;;;7620429;19;20017;-71
2023/01/23 16:56:16;;;;;;;113.43;39.67;;;0.50;99.90;;;;;;7605116;19;20017;-72
2023/01/23 16:58:49;;;;;;;96.57;38.90;;;0.60;99.90;;;;;;7635162;19;20006;-71
2023/01/23 17:01:23;;;;;;;107.97;39.95;;;0.50;99.90;;;;;;7628323;19;20081;-71
2023/01/23 17:04:01;;;;;;;106.47;37.30;;;0.50;99.90;;;;;;7625143;19;20054;-70
2023/01/23 17:06:33;;;;;;;97.70;38.30;;;0.60;99.90;;;;;;7642908;19;20296;-72
2023/01/23 17:09:05;;;;;;;103.28;39.13;;;0.60;99.90;;;;;;7628341;19;20043;-72
2023/01/23 17:11:42;;;;;;;110.97;41.43;;;0.50;99.90;;;;;;7614405;19;20641;-72
2023/01/23 17:14:29;;;;;;;109.38;40.08;;;0.50;99.90;;;;;;7638639;19;20283;-72
2023/01/23 17:17:08;;;;;;;101.50;38.03;;;0.60;99.90;;;;;;7580327;19;20109;-72
2023/01/23 17:19:42;;;;;;;115.03;38.95;;;0.60;99.90;;;;;;7604575;19;20014;-73
2023/01/23 17:22:31;;;;;;;128.20;54.90;;;0.60;99.90;;;;;;7580813;19;20022;-73
2023/01/23 17:25:12;;;;;;;117.70;42.65;;;0.50;99.90;;;;;;7607906;19;21716;-72
2023/01/23 17:27:45;;;;;;;147.95;56.50;;;0.60;99.90;;;;;;7620848;19;20037;-72
2023/01/23 17:30:39;;;;;;;87.27;31.87;;;0.60;99.90;;;;;;7583841;19;20714;-72
2023/01/23 17:33:22;;;;;;;125.95;45.67;;;0.50;99.90;;;;;;7565846;19;24713;-71
2023/01/23 17:35:55;;;;;;;112.20;40.88;;;0.60;99.90;;;;;;7579871;19;20056;-71
2023/01/23 17:38:33;;;;;;;115.13;40.85;;;0.60;99.90;;;;;;7572503;19;20007;-72
2023/01/23 17:41:11;;;;;;;117.68;42.92;;;0.60;99.90;;;;;;7578362;19;20490;-72
2023/01/23 17:43:46;;;;;;;128.35;57.40;;;0.60;99.90;;;;;;7592638;19;20026;-72
2023/01/23 17:46:25;;;;;;;124.97;47.40;;;0.60;99.90;;;;;;7588855;19;20010;-72
2023/01/23 17:48:58;;;;;;;115.40;44.78;;;0.60;99.90;;;;;;7595975;19;20014;-72
2023/01/23 17:51:32;;;;;;;110.90;40.80;;;0.60;99.90;;;;;;7583071;19;20025;-73
2023/01/23 17:54:17;;;;;;;125.18;50.05;;;0.60;99.90;;;;;;7585239;19;20018;-73
2023/01/23 17:56:50;;;;;;;124.55;43.65;;;0.60;99.90;;;;;;7569544;19;20100;-72
2023/01/23 17:59:22;;;;;;;108.07;40.33;;;0.60;99.90;;;;;;7578084;19;20025;-72
2023/01/23 18:01:56;;;;;;;109.60;38.85;;;0.50;99.90;;;;;;7588260;19;20010;-72
2023/01/23 18:04:29;;;;;;;131.18;45.58;;;0.60;99.90;;;;;;7594820;19;20018;-72
2023/01/23 18:07:04;;;;;;;113.60;40.00;;;0.60;99.90;;;;;;7585894;19;20359;-72
2023/01/23 18:09:37;;;;;;;129.23;42.85;;;0.60;99.90;;;;;;7585771;19;20011;-72
2023/01/23 18:12:16;;;;;;;104.57;38.97;;;0.50;99.90;;;;;;7588936;19;20114;-73
2023/01/23 18:14:55;;;;;;;107.25;38.78;;;0.50;99.90;;;;;;7588641;19;20565;-72
2023/01/23 18:17:55;;;;;;;107.57;38.83;;;0.50;99.90;;;;;;7585077;19;20052;-72
2023/01/23 18:20:28;;;;;;;102.15;36.20;;;0.60;99.90;;;;;;7582078;19;20476;-73
2023/01/23 18:23:01;;;;;;;93.55;35.83;;;0.60;99.90;;;;;;7560320;19;20014;-73
2023/01/23 18:25:34;;;;;;;96.18;35.60;;;0.70;99.90;;;;;;7592795;19;20061;-72
2023/01/23 18:28:18;;;;;;;100.57;35.05;;;0.70;99.90;;;;;;7577351;19;20118;-73
2023/01/23 18:31:10;;;;;;;101.72;35.08;;;1.00;99.90;;;;;;7576819;19;20019;-73
2023/01/23 18:33:51;;;;;;;105.43;36.45;;;0.30;99.90;;;;;;7587048;19;20021;-73
2023/01/23 18:36:45;;;;;;;107.28;35.45;;;0.60;99.90;;;;;;7597490;19;20088;-74
2023/01/23 18:39:42;;;;;;;;;;;-0.90;99.90;;;;;;7595023;19;20006;-73
2023/01/23 18:42:41;;;;;;;104.10;36.40;;;0.60;99.90;;;;;;7557169;19;19915;-73
2023/01/23 18:45:15;;;;;;;111.22;36.67;;;0.60;99.90;;;;;;7585822;19;20011;-72
2023/01/23 18:47:57;;;;;;;;;;;0.90;99.90;;;;;;7575757;19;20010;-73
2023/01/23 18:50:30;;;;;;;95.60;35.83;;;0.50;99.90;;;;;;7586099;19;19954;-72
2023/01/23 18:53:19;;;;;;;100.40;33.78;;;0.60;99.90;;;;;;7570348;19;20129;-72
2023/01/23 18:56:21;;;;;;;107.55;35.97;;;0.50;99.90;;;;;;7584234;19;20014;-72
2023/01/23 18:59:02;;;;;;;105.65;38.75;;;0.50;99.90;;;;;;7568784;19;20006;-71
2023/01/23 19:01:43;;;;;;;100.97;36.75;;;0.60;99.90;;;;;;7562388;19;20414;-71
2023/01/23 19:04:17;;;;;;;110.65;38.35;;;0.50;99.90;;;;;;7554624;19;20037;-71
2023/01/23 19:06:50;;;;;;;112.90;43.28;;;0.40;99.90;;;;;;7492163;19;20017;-70
2023/01/23 19:09:26;;;;;;;117.65;42.88;;;0.10;99.90;;;;;;7600646;19;20022;-72
2023/01/23 19:12:08;;;;;;;118.00;39.63;;;1.10;99.90;;;;;;7591742;19;20018;-72
2023/01/23 19:15:21;;;;;;;116.03;38.38;;;0.50;99.90;;;;;;7597131;19;20429;-72
2023/01/23 19:18:12;;;;;;;111.75;36.63;;;0.60;99.90;;;;;;7592522;19;20094;-71
2023/01/23 19:20:50;;;;;;;113.65;39.40;;;0.60;99.90;;;;;;7602918;19;20018;-71
2023/01/23 19:23:37;;;;;;;122.70;42.88;;;0.50;99.90;;;;;;7594423;19;20018;-72
2023/01/23 19:26:16;;;;;;;117.38;42.45;;;0.50;99.90;;;;;;7592619;19;20018;-71
2023/01/23 19:28:49;;;;;;;115.13;38.42;;;0.50;99.90;;;;;;7598484;19;20014;-72
2023/01/23 19:31:29;;;;;;;110.40;41.25;;;1.80;99.90;;;;;;7547986;19;20022;-73
2023/01/23 19:34:03;;;;;;;128.73;44.88;;;0.30;99.90;;;;;;7583544;19;20085;-73
2023/01/23 19:36:36;;;;;;;129.52;56.67;;;0.70;99.90;;;;;;7596313;19;20018;-73
2023/01/23 19:39:09;;;;;;;122.30;43.33;;;0.80;99.90;;;;;;7592597;19;20024;-70
2023/01/23 19:41:45;;;;;;;126.05;46.85;;;0.30;99.90;;;;;;7599602;19;20014;-72
2023/01/23 19:44:22;;;;;;;141.13;46.58;;;0.70;99.90;;;;;;7590852;19;20021;-72
2023/01/23 19:46:55;;;;;;;130.70;46.33;;;-0.10;99.90;;;;;;7563896;19;20037;-72
2023/01/23 19:49:27;;;;;;;123.40;43.10;;;0.50;99.90;;;;;;7567897;19;20019;-72
2023/01/23 19:52:00;;;;;;;141.27;47.27;;;0.60;99.90;;;;;;7599437;19;20018;-71
2023/01/23 19:54:33;;;;;;;137.00;46.33;;;0.60;99.90;;;;;;7580194;19;20020;-72
2023/01/23 19:57:06;;;;;;;127.75;42.00;;;0.60;99.90;;;;;;7576764;19;20014;-71
2023/01/23 19:59:38;;;;;;;120.47;41.35;;;0.70;99.90;;;;;;7592768;19;20050;-71
2023/01/23 20:02:20;;;;;;;126.55;40.88;;;0.70;99.90;;;;;;7547164;19;20021;-71
2023/01/23 20:04:56;;;;;;;132.82;46.95;;;0.70;99.90;;;;;;7559624;19;20023;-71
